Time;durP1;ratioP1;P1;durP2;ratioP2;P2;SDS_P1;SDS_P2;PMS_P1;PMS_P2;Temp;Humidity;BMP_temperature;BMP_pressure;BME280_temperature;BME280_humidity;BME280_pressure;Samples;Min_cycle;Max_cycle;Signal;HPM_P1;HPM_P2
2023/02/02 00:00:12;;;;;;;0.70;0.52;;;17.10;52.30;;;;;;5123805;28;20026;-72
2023/02/02 00:02:38;;;;;;;0.90;0.50;;;17.10;52.30;;;;;;5122295;28;20020;-71
2023/02/02 00:05:03;;;;;;;0.60;0.47;;;17.10;52.40;;;;;;5122835;28;20031;-71
2023/02/02 00:07:29;;;;;;;1.27;0.50;;;17.10;52.30;;;;;;5123629;28;20327;-71
2023/02/02 00:09:55;;;;;;;0.50;0.50;;;17.10;52.40;;;;;;5123654;28;20028;-72
2023/02/02 00:12:21;;;;;;;1.70;0.80;;;17.00;52.50;;;;;;5123378;28;20243;-71
2023/02/02 00:14:47;;;;;;;0.40;0.38;;;16.90;52.50;;;;;;5123574;28;20020;-72
2023/02/02 00:17:12;;;;;;;1.52;0.77;;;16.90;52.50;;;;;;5123636;27;20034;-70
2023/02/02 00:19:38;;;;;;;0.93;0.43;;;16.80;52.70;;;;;;5123601;28;20022;-71
2023/02/02 00:22:04;;;;;;;1.02;0.55;;;16.80;52.90;;;;;;5123405;28;20051;-71
2023/02/02 00:24:30;;;;;;;0.82;0.75;;;16.70;53.00;;;;;;5123300;28;20022;-71
2023/02/02 00:26:58;;;;;;;0.82;0.40;;;16.70;53.10;;;;;;5123251;28;20031;-71
2023/02/02 00:29:26;;;;;;;0.80;0.40;;;16.60;53.00;;;;;;5123267;28;20020;-71
2023/02/02 00:31:52;;;;;;;0.75;0.60;;;16.60;52.70;;;;;;5123183;28;20045;-71
2023/02/02 00:34:18;;;;;;;0.90;0.47;;;16.50;53.00;;;;;;5123074;28;20047;-71
2023/02/02 00:36:45;;;;;;;0.50;0.40;;;16.50;53.20;;;;;;5122968;28;20030;-72
2023/02/02 00:39:17;;;;;;;0.50;0.30;;;16.50;53.00;;;;;;5123049;28;20553;-72
2023/02/02 00:41:43;;;;;;;1.80;0.68;;;16.50;53.10;;;;;;5122981;28;20235;-71
2023/02/02 00:46:53;;;;;;;1.27;0.50;;;16.40;53.20;;;;;;5122885;28;20102;-71
2023/02/02 00:49:19;;;;;;;0.45;0.45;;;16.40;53.60;;;;;;5122748;28;20023;-71
2023/02/02 00:51:45;;;;;;;0.60;0.50;;;16.40;53.60;;;;;;5122705;28;20031;-71
2023/02/02 00:54:11;;;;;;;1.00;0.43;;;16.40;53.60;;;;;;5122787;27;20022;-71
2023/02/02 00:56:36;;;;;;;0.63;0.52;;;16.50;53.50;;;;;;5122722;28;20250;-72
2023/02/02 00:59:02;;;;;;;0.55;0.43;;;16.60;53.20;;;;;;5122527;28;20027;-71
2023/02/02 01:01:28;;;;;;;0.82;0.55;;;16.70;53.30;;;;;;5121217;28;20019;-71
2023/02/02 01:03:54;;;;;;;0.52;0.43;;;16.80;53.30;;;;;;5122488;28;20097;-72
2023/02/02 01:06:20;;;;;;;0.95;0.50;;;16.90;53.00;;;;;;5121231;28;20204;-71
2023/02/02 01:08:46;;;;;;;0.82;0.57;;;16.90;52.80;;;;;;5122353;28;20315;-71
2023/02/02 01:11:12;;;;;;;0.95;0.63;;;16.90;52.70;;;;;;5122142;28;20077;-71
2023/02/02 01:13:38;;;;;;;0.93;0.50;;;17.00;52.90;;;;;;5122337;28;20238;-71
2023/02/02 01:16:04;;;;;;;1.05;0.60;;;17.00;52.30;;;;;;5121247;28;20252;-71
2023/02/02 01:18:30;;;;;;;1.20;0.50;;;17.10;52.20;;;;;;5122212;28;20020;-71
2023/02/02 01:21:00;;;;;;;0.88;0.40;;;17.10;52.20;;;;;;5122141;28;20354;-71
2023/02/02 01:23:26;;;;;;;0.85;0.50;;;17.10;51.70;;;;;;5122066;28;20028;-71
2023/02/02 01:26:00;;;;;;;0.85;0.63;;;17.20;51.50;;;;;;5122135;28;20215;-71
2023/02/02 01:28:27;;;;;;;0.57;0.45;;;17.20;51.50;;;;;;5122037;28;20051;-71
2023/02/02 01:30:53;;;;;;;0.70;0.43;;;17.10;51.50;;;;;;5120648;28;20272;-71
2023/02/02 01:33:19;;;;;;;0.40;0.40;;;17.00;51.60;;;;;;5121861;28;20035;-71
2023/02/02 01:35:48;;;;;;;1.35;0.40;;;16.90;52.00;;;;;;5121945;28;20019;-72
2023/02/02 01:38:14;;;;;;;0.68;0.50;;;16.80;52.10;;;;;;5121918;27;20042;-71
2023/02/02 01:40:48;;;;;;;1.95;0.50;;;16.80;52.30;;;;;;5121831;28;20304;-72
2023/02/02 01:43:22;;;;;;;0.43;0.30;;;16.70;52.50;;;;;;5121978;28;20030;-71
2023/02/02 01:45:49;;;;;;;0.60;0.30;;;16.70;52.60;;;;;;5120514;28;20072;-72
2023/02/02 01:48:16;;;;;;;1.17;0.73;;;16.60;52.30;;;;;;5121771;28;20019;-71
2023/02/02 01:50:43;;;;;;;1.08;0.30;;;16.60;52.60;;;;;;5121686;28;20024;-71
2023/02/02 01:53:09;;;;;;;0.80;0.40;;;16.50;52.80;;;;;;5121617;28;20082;-71
2023/02/02 01:55:38;;;;;;;0.70;0.45;;;16.50;52.90;;;;;;5121630;28;20115;-72
2023/02/02 01:58:07;;;;;;;0.70;0.30;;;16.40;53.00;;;;;;5121508;28;20074;-71
2023/02/02 02:00:33;;;;;;;0.65;0.55;;;16.40;52.90;;;;;;5121592;28;20012;-71
2023/02/02 02:03:10;;;;;;;0.52;0.32;;;16.40;53.10;;;;;;5121552;28;20032;-70
2023/02/02 02:05:41;;;;;;;0.52;0.40;;;16.40;53.20;;;;;;5121445;28;20026;-70
2023/02/02 02:08:20;;;;;;;0.30;0.30;;;16.30;53.20;;;;;;5120198;28;20327;-70
2023/02/02 02:10:47;;;;;;;0.88;0.40;;;16.30;53.90;;;;;;5121308;28;20015;-71
2023/02/02 02:13:13;;;;;;;1.23;0.50;;;16.40;53.30;;;;;;5119898;28;20244;-70
2023/02/02 02:19:20;;;;;;;1.70;0.40;;;16.60;53.40;;;;;;5121354;28;20083;-70
2023/02/02 02:28:20;;;;;;;1.23;0.50;;;16.80;52.50;;;;;;5120753;28;20026;-70
2023/02/02 02:31:13;;;;;;;1.15;0.73;;;16.90;52.30;;;;;;5121132;28;20261;-70
2023/02/02 02:33:58;;;;;;;0.52;0.40;;;16.90;52.20;;;;;;5121130;28;20027;-71
2023/02/02 02:36:42;;;;;;;0.28;0.28;;;17.00;52.00;;;;;;5121348;28;20015;-70
2023/02/02 02:39:38;;;;;;;0.82;0.47;;;17.00;52.10;;;;;;5121047;28;20075;-71
2023/02/02 02:42:10;;;;;;;0.65;0.60;;;17.10;52.10;;;;;;5121177;28;20019;-70
2023/02/02 02:44:36;;;;;;;0.70;0.40;;;17.10;51.60;;;;;;5121022;28;20024;-71
2023/02/02 02:47:02;;;;;;;0.30;0.30;;;17.10;51.70;;;;;;5121163;28;20024;-71
2023/02/02 02:49:28;;;;;;;1.15;0.47;;;17.00;51.70;;;;;;5121203;28;20024;-70
2023/02/02 02:51:55;;;;;;;0.95;0.65;;;17.00;51.80;;;;;;5121022;28;20035;-70
2023/02/02 02:54:34;;;;;;;0.73;0.40;;;16.90;51.70;;;;;;5119699;28;20047;-71
2023/02/02 02:57:37;;;;;;;0.80;0.30;;;16.80;51.60;;;;;;5120937;28;20019;-71
2023/02/02 03:00:24;;;;;;;0.30;0.30;;;16.70;52.30;;;;;;5120905;28;20027;-70
2023/02/02 03:03:47;;;;;;;2.03;0.47;;;16.70;52.10;;;;;;5120877;28;20055;-71
2023/02/02 03:06:24;;;;;;;0.88;0.50;;;16.60;52.00;;;;;;5057911;28;20039;-71
2023/02/02 03:09:05;;;;;;;1.05;0.30;;;16.50;52.00;;;;;;5057881;28;20387;-70
2023/02/02 03:11:31;;;;;;;0.32;0.32;;;16.50;52.60;;;;;;5098400;28;20128;-71
2023/02/02 03:13:57;;;;;;;0.75;0.50;;;16.40;52.50;;;;;;5120847;28;20028;-70
2023/02/02 03:16:23;;;;;;;1.63;0.63;;;16.40;52.90;;;;;;5120708;28;20016;-70
2023/02/02 03:18:49;;;;;;;1.45;0.60;;;16.30;52.70;;;;;;5120675;28;20111;-71
2023/02/02 08:03:41;;;;;;;9.35;1.27;;;16.80;50.60;;;;;;5184507;23;20101;-72
2023/02/02 08:06:34;;;;;;;12.73;1.05;;;16.80;51.30;;;;;;4991041;28;20264;-72
2023/02/02 08:09:01;;;;;;;6.53;0.65;;;16.80;51.30;;;;;;4992361;28;20030;-71
2023/02/02 08:11:27;;;;;;;6.88;1.45;;;16.80;51.10;;;;;;5003390;28;20041;-70
2023/02/02 08:13:56;;;;;;;8.13;0.75;;;16.70;50.60;;;;;;5003417;28;20022;-69
2023/02/02 08:16:23;;;;;;;134.38;13.38;;;16.70;49.90;;;;;;5003361;28;20034;-72
2023/02/02 08:18:49;;;;;;;50.25;4.95;;;16.70;49.20;;;;;;5003249;28;20089;-70
2023/02/02 08:21:16;;;;;;;26.80;2.75;;;16.60;49.10;;;;;;5003279;28;20400;-71
2023/02/02 08:23:42;;;;;;;29.85;2.40;;;16.50;49.00;;;;;;5003248;28;20057;-72
2023/02/02 08:26:10;;;;;;;23.65;2.35;;;16.50;48.70;;;;;;5002417;28;20022;-71
2023/02/02 08:28:36;;;;;;;21.52;3.03;;;16.60;48.80;;;;;;5001794;28;20327;-71
2023/02/02 08:31:08;;;;;;;16.50;3.00;;;16.60;48.80;;;;;;5003080;28;20077;-75
2023/02/02 08:33:34;;;;;;;21.00;2.47;;;16.50;48.40;;;;;;5002925;28;20517;-70
2023/02/02 08:36:01;;;;;;;20.95;1.73;;;16.60;48.20;;;;;;5002887;28;20026;-69
2023/02/02 08:38:27;;;;;;;17.75;2.35;;;16.60;48.50;;;;;;5002935;28;20318;-70
2023/02/02 08:40:53;;;;;;;20.73;1.80;;;16.70;48.10;;;;;;5002844;28;20022;-71
2023/02/02 08:43:19;;;;;;;13.13;1.48;;;16.60;47.80;;;;;;5002732;28;20022;-72
2023/02/02 08:45:46;;;;;;;19.10;1.98;;;16.70;48.30;;;;;;5002736;28;20038;-69
2023/02/02 08:48:15;;;;;;;13.88;1.17;;;16.70;47.50;;;;;;5002636;28;20026;-70
2023/02/02 08:50:41;;;;;;;11.68;1.77;;;16.70;47.40;;;;;;5002562;28;20030;-71
2023/02/02 08:53:07;;;;;;;11.05;1.40;;;16.70;47.30;;;;;;5002441;28;20102;-71
2023/02/02 08:55:33;;;;;;;6.38;1.17;;;16.70;47.50;;;;;;4998666;28;20026;-71
2023/02/02 08:57:59;;;;;;;9.40;2.03;;;16.70;47.50;;;;;;4991298;28;20019;-71
2023/02/02 09:00:25;;;;;;;5.20;1.10;;;16.70;46.90;;;;;;4995963;28;20022;-71
2023/02/02 09:02:51;;;;;;;4.65;1.00;;;16.60;47.70;;;;;;4998469;28;20062;-71
2023/02/02 09:05:16;;;;;;;6.47;1.45;;;16.50;47.30;;;;;;5002271;28;20054;-74
2023/02/02 09:07:42;;;;;;;8.38;1.13;;;16.50;47.10;;;;;;5002232;28;20034;-72
2023/02/02 09:10:08;;;;;;;8.00;1.13;;;16.50;47.40;;;;;;5002199;28;20034;-70
2023/02/02 09:12:34;;;;;;;9.30;1.17;;;16.50;47.20;;;;;;5002226;28;20034;-70
2023/02/02 09:15:00;;;;;;;4.20;1.00;;;16.50;47.10;;;;;;5002105;28;20194;-70
2023/02/02 09:17:28;;;;;;;10.05;1.05;;;16.50;47.20;;;;;;4997851;28;20030;-67
2023/02/02 09:19:54;;;;;;;9.23;1.20;;;16.50;47.20;;;;;;4994051;28;20030;-66
2023/02/02 09:22:20;;;;;;;18.95;1.83;;;16.60;47.50;;;;;;4998404;28;20072;-66
2023/02/02 09:24:46;;;;;;;42.17;4.65;;;16.60;47.60;;;;;;5001908;28;20030;-67
2023/02/02 09:27:11;;;;;;;58.65;6.38;;;16.60;47.80;;;;;;5001914;28;20031;-67
2023/02/02 09:29:37;;;;;;;85.00;7.25;;;16.70;47.80;;;;;;4995671;28;20038;-67
2023/02/02 09:32:03;;;;;;;57.70;6.57;;;16.60;48.00;;;;;;4990625;28;20647;-66
2023/02/02 09:34:29;;;;;;;36.67;3.75;;;16.60;47.70;;;;;;4986032;28;20026;-66
2023/02/02 09:36:55;;;;;;;47.83;5.03;;;16.60;48.40;;;;;;5000582;28;20029;-66
2023/02/02 09:39:21;;;;;;;44.17;4.07;;;16.70;48.30;;;;;;4996401;28;20121;-65
2023/02/02 09:42:02;;;;;;;33.38;4.80;;;16.80;48.30;;;;;;4999757;28;20022;-66
2023/02/02 09:44:51;;;;;;;28.45;3.22;;;16.90;48.30;;;;;;5000767;28;20023;-65
2023/02/02 09:47:20;;;;;;;29.50;3.85;;;16.90;48.10;;;;;;5001342;28;20230;-67
2023/02/02 09:49:54;;;;;;;;;;;17.00;48.10;;;;;;5001728;28;20081;-65
2023/02/02 09:52:42;;;;;;;28.58;2.92;;;17.10;48.10;;;;;;5000464;28;19920;-65
2023/02/02 09:55:27;;;;;;;20.23;3.25;;;17.10;48.00;;;;;;5001078;28;20026;-66
2023/02/02 09:58:04;;;;;;;22.20;2.55;;;17.10;48.10;;;;;;5001364;28;20028;-65
2023/02/02 10:00:52;;;;;;;25.27;3.42;;;17.20;48.40;;;;;;5001422;28;20026;-67
2023/02/02 10:03:28;;;;;;;25.83;3.22;;;17.30;48.10;;;;;;5000842;28;20058;-65
2023/02/02 10:06:01;;;;;;;12.95;2.33;;;17.30;48.10;;;;;;5001623;28;20488;-65
2023/02/02 10:08:37;;;;;;;21.15;2.35;;;17.30;47.90;;;;;;5001541;28;20024;-65
2023/02/02 10:11:29;;;;;;;29.30;3.05;;;17.20;48.20;;;;;;5001403;28;20376;-66
2023/02/02 10:14:21;;;;;;;16.23;1.95;;;17.10;48.20;;;;;;4999346;28;20062;-65
2023/02/02 10:16:50;;;;;;;18.83;2.03;;;17.10;48.50;;;;;;4995580;28;20034;-65
2023/02/02 10:19:16;;;;;;;16.90;2.58;;;17.10;48.50;;;;;;5000941;28;20018;-66
2023/02/02 10:22:18;;;;;;;16.88;2.47;;;17.10;48.60;;;;;;5000757;28;20269;-66
2023/02/02 10:24:44;;;;;;;18.52;3.38;;;17.00;48.60;;;;;;4979684;28;20046;-66
2023/02/02 10:27:36;;;;;;;168.18;13.95;;;17.00;48.90;;;;;;5001033;28;20350;-68
2023/02/02 10:30:10;;;;;;;32.35;3.45;;;16.90;48.20;;;;;;5000942;28;20022;-67
2023/02/02 10:32:51;;;;;;;19.02;3.00;;;17.00;49.00;;;;;;5000896;28;20026;-67
2023/02/02 10:35:47;;;;;;;16.08;2.72;;;17.00;48.70;;;;;;5000941;28;20019;-67
2023/02/02 10:38:21;;;;;;;15.55;2.40;;;17.20;48.80;;;;;;5000940;28;20022;-67
2023/02/02 10:41:09;;;;;;;18.77;2.25;;;17.20;48.80;;;;;;5000975;28;20090;-67
2023/02/02 10:44:02;;;;;;;34.42;3.55;;;17.30;48.80;;;;;;4999699;28;20034;-67
2023/02/02 10:46:33;;;;;;;20.17;2.78;;;17.40;48.90;;;;;;5000869;28;20050;-67
2023/02/02 10:49:20;;;;;;;16.50;2.33;;;17.50;49.00;;;;;;5003358;28;20034;-67
2023/02/02 10:52:11;;;;;;;21.63;3.30;;;17.50;49.10;;;;;;5004792;28;20022;-67
2023/02/02 10:54:46;;;;;;;17.17;3.15;;;17.50;49.50;;;;;;5004802;28;20022;-68
2023/02/02 10:57:15;;;;;;;23.50;2.92;;;17.60;49.20;;;;;;5004753;28;20021;-68
2023/02/02 11:00:04;;;;;;;22.13;2.85;;;17.60;49.30;;;;;;5004699;28;20030;-67
2023/02/02 11:02:31;;;;;;;12.80;2.88;;;17.70;49.20;;;;;;5004253;28;20050;-67
2023/02/02 11:07:41;;;;;;;12.48;1.98;;;17.70;49.10;;;;;;5004544;28;20030;-68
2023/02/02 11:10:07;;;;;;;15.38;2.55;;;17.70;49.10;;;;;;5004476;28;20022;-69
2023/02/02 11:12:38;;;;;;;12.85;2.47;;;17.70;49.30;;;;;;5003021;28;20022;-68
2023/02/02 11:15:21;;;;;;;18.15;2.67;;;17.70;49.30;;;;;;5004460;28;20090;-68
2023/02/02 11:17:47;;;;;;;32.53;3.95;;;17.80;49.70;;;;;;5004382;28;20052;-68
2023/02/02 11:20:37;;;;;;;23.88;2.38;;;17.80;49.40;;;;;;5004344;28;20052;-69
2023/02/02 11:23:06;;;;;;;25.20;2.50;;;16.70;44.60;;;;;;5004837;28;20022;-72
2023/02/02 11:25:38;;;;;;;18.73;2.70;;;17.10;49.90;;;;;;5004492;28;20014;-75
2023/02/02 11:28:19;;;;;;;13.52;3.10;;;17.30;45.60;;;;;;5005026;28;20034;-73
2023/02/02 11:30:51;;;;;;;26.88;3.95;;;17.40;49.40;;;;;;5005378;28;20030;-74
2023/02/02 11:33:31;;;;;;;9.20;1.58;;;17.10;41.30;;;;;;5004090;28;20026;-70
2023/02/02 11:36:24;;;;;;;13.65;1.83;;;16.70;42.30;;;;;;5004082;28;20014;-72
2023/02/02 11:39:14;;;;;;;13.43;1.50;;;16.30;43.80;;;;;;5004038;28;20049;-71
2023/02/02 11:41:40;;;;;;;8.25;1.85;;;16.20;44.20;;;;;;5004018;28;20053;-71
2023/02/02 11:44:18;;;;;;;7.82;1.52;;;16.10;43.30;;;;;;5003943;28;20037;-71
2023/02/02 11:46:46;;;;;;;4.43;0.85;;;16.00;43.20;;;;;;5004192;28;20026;-71
2023/02/02 11:49:17;;;;;;;5.22;1.05;;;16.00;42.70;;;;;;5003957;28;20027;-71
2023/02/02 11:51:55;;;;;;;13.38;1.55;;;15.90;42.40;;;;;;5003835;28;20021;-72
2023/02/02 11:54:30;;;;;;;7.85;1.42;;;16.00;43.40;;;;;;5003885;28;20029;-71
2023/02/02 11:57:00;;;;;;;7.80;1.92;;;16.00;42.80;;;;;;5003863;28;20022;-71
2023/02/02 11:59:40;;;;;;;8.65;1.70;;;15.90;42.60;;;;;;5003056;28;20022;-72
2023/02/02 12:02:20;;;;;;;7.00;1.17;;;15.90;44.10;;;;;;5003126;28;20069;-70
2023/02/02 12:04:48;;;;;;;5.43;1.52;;;15.90;42.90;;;;;;5003549;28;20030;-72
2023/02/02 12:07:32;;;;;;;5.55;1.30;;;15.90;43.40;;;;;;5003734;28;20022;-71
2023/02/02 12:10:39;;;;;;;6.55;1.50;;;16.10;42.60;;;;;;5003545;28;20022;-71
2023/02/02 12:13:23;;;;;;;7.68;1.73;;;15.90;41.80;;;;;;4989162;28;20041;-70
2023/02/02 12:16:06;;;;;;;7.00;1.85;;;16.10;42.20;;;;;;5003372;28;20018;-71
2023/02/02 12:19:26;;;;;;;13.70;2.47;;;16.10;43.20;;;;;;5003335;28;20095;-71
2023/02/02 12:22:03;;;;;;;7.90;1.85;;;16.00;42.70;;;;;;4945954;29;20538;-71
2023/02/02 12:24:42;;;;;;;13.07;1.60;;;16.10;42.30;;;;;;4997560;28;20023;-71
2023/02/02 12:27:31;;;;;;;5.47;1.35;;;16.10;41.90;;;;;;5003170;28;20317;-72
2023/02/02 12:30:18;;;;;;;8.85;1.35;;;16.10;42.30;;;;;;5003081;28;20034;-71
2023/02/02 12:33:12;;;;;;;7.53;1.77;;;16.00;42.60;;;;;;5003011;28;20360;-71
2023/02/02 12:36:05;;;;;;;3.47;1.17;;;16.10;43.30;;;;;;5001633;28;20049;-71
2023/02/02 12:38:54;;;;;;;3.50;1.20;;;15.90;42.50;;;;;;5002987;28;20034;-72
2023/02/02 12:41:30;;;;;;;;;;;15.80;41.70;;;;;;5003458;28;20337;-72
2023/02/02 12:44:09;;;;;;;9.95;1.75;;;15.90;41.80;;;;;;5003020;28;19916;-71
2023/02/02 12:46:44;;;;;;;;;;;15.90;42.20;;;;;;5003444;28;20027;-72
2023/02/02 12:49:25;;;;;;;4.60;1.20;;;15.90;42.70;;;;;;5002845;28;19909;-74
2023/02/02 12:52:19;;;;;;;3.25;1.27;;;15.80;41.90;;;;;;5002628;28;20030;-73
2023/02/02 12:55:22;;;;;;;2.47;0.90;;;15.70;43.20;;;;;;5002797;28;20022;-72
2023/02/02 12:58:18;;;;;;;1.80;0.85;;;15.90;42.20;;;;;;5002619;28;20326;-72
2023/02/02 13:01:05;;;;;;;3.97;1.08;;;15.90;42.00;;;;;;5002578;28;20050;-72
2023/02/02 13:03:38;;;;;;;6.82;1.27;;;15.90;42.50;;;;;;5001045;28;20077;-72
2023/02/02 13:06:35;;;;;;;3.13;1.27;;;15.90;42.50;;;;;;5002522;28;20045;-74
2023/02/02 13:09:21;;;;;;;5.95;1.25;;;15.90;42.30;;;;;;5002346;28;20048;-71
2023/02/02 13:12:08;;;;;;;8.77;1.65;;;15.80;42.30;;;;;;4981257;28;20046;-71
2023/02/02 13:14:39;;;;;;;4.65;1.08;;;16.20;45.30;;;;;;5002281;28;20334;-71
2023/02/02 13:17:15;;;;;;;10.27;1.45;;;16.50;45.00;;;;;;5002186;28;20034;-71
2023/02/02 13:19:52;;;;;;;9.27;1.60;;;16.70;44.60;;;;;;5002333;28;20055;-71
2023/02/02 13:22:23;;;;;;;4.20;1.10;;;16.80;44.10;;;;;;5002077;28;20439;-71
2023/02/02 13:24:52;;;;;;;7.28;1.10;;;16.90;44.50;;;;;;5002105;28;20038;-71
2023/02/02 13:27:20;;;;;;;4.50;1.35;;;17.00;44.30;;;;;;5002110;28;20388;-71
2023/02/02 13:29:59;;;;;;;5.80;1.30;;;17.10;44.20;;;;;;5002096;28;20022;-73
2023/02/02 13:32:30;;;;;;;8.23;1.58;;;16.80;40.30;;;;;;5002032;28;20042;-74
2023/02/02 13:35:04;;;;;;;20.15;2.00;;;16.10;41.50;;;;;;5001926;28;20018;-74
2023/02/02 13:37:50;;;;;;;6.78;1.65;;;16.00;42.90;;;;;;5001901;28;20018;-72
2023/02/02 13:40:26;;;;;;;6.47;1.58;;;15.90;41.90;;;;;;5001989;28;20014;-72
2023/02/02 13:43:11;;;;;;;7.75;1.70;;;15.80;42.10;;;;;;5000760;28;20416;-74
2023/02/02 13:45:58;;;;;;;11.18;2.50;;;15.70;42.20;;;;;;5001847;28;20069;-72
2023/02/02 13:48:30;;;;;;;7.72;1.15;;;15.60;42.40;;;;;;5001892;28;20294;-70
2023/02/02 13:51:25;;;;;;;92.88;9.60;;;15.40;39.70;;;;;;5000430;28;20014;-70
2023/02/02 13:53:54;;;;;;;54.15;5.35;;;15.90;44.50;;;;;;4965746;28;20031;-70
2023/02/02 13:56:40;;;;;;;;;;;16.30;45.40;;;;;;5000834;28;20046;-69
2023/02/02 13:59:13;;;;;;;23.02;2.60;;;16.60;45.30;;;;;;5001615;28;20028;-70
2023/02/02 14:01:45;;;;;;;34.30;3.10;;;16.90;45.60;;;;;;5001626;28;20039;-69
2023/02/02 14:04:25;;;;;;;28.08;4.53;;;17.00;45.30;;;;;;5001205;28;20113;-69
2023/02/02 14:07:03;;;;;;;28.10;3.67;;;17.00;45.60;;;;;;5001483;28;20020;-69
2023/02/02 14:09:33;;;;;;;19.70;2.55;;;17.00;45.70;;;;;;5001465;28;20033;-69
2023/02/02 14:12:06;;;;;;;24.92;2.45;;;17.10;45.90;;;;;;5001463;28;20022;-68
2023/02/02 14:14:34;;;;;;;25.90;3.03;;;17.10;46.00;;;;;;5001453;28;20045;-69
2023/02/02 14:17:05;;;;;;;20.17;3.17;;;17.10;46.90;;;;;;5001452;28;20041;-68
2023/02/02 14:19:34;;;;;;;15.20;2.60;;;17.10;46.40;;;;;;5000150;28;20249;-69
2023/02/02 14:22:00;;;;;;;;;;;17.10;46.50;;;;;;5001661;28;20089;-69
2023/02/02 14:24:29;;;;;;;23.00;3.13;;;17.10;46.40;;;;;;5000857;28;19909;-69
2023/02/02 14:27:00;;;;;;;17.20;2.80;;;17.10;46.60;;;;;;5001342;28;20537;-69
2023/02/02 14:29:32;;;;;;;12.38;2.28;;;17.10;46.50;;;;;;5001336;28;20034;-67
2023/02/02 14:32:29;;;;;;;15.68;2.28;;;17.00;46.60;;;;;;5001528;28;20033;-67
2023/02/02 14:34:56;;;;;;;15.93;2.38;;;17.00;46.70;;;;;;5001169;28;20027;-69
2023/02/02 14:37:25;;;;;;;10.87;2.33;;;16.90;46.90;;;;;;5001172;28;20018;-69
2023/02/02 14:40:07;;;;;;;;;;;16.90;46.90;;;;;;5001500;28;20258;-69
2023/02/02 14:45:34;;;;;;;16.17;1.90;;;16.90;47.50;;;;;;5001026;28;20347;-68
2023/02/02 14:48:06;;;;;;;17.25;1.92;;;16.90;47.20;;;;;;5000988;28;20065;-68
2023/02/02 14:50:37;;;;;;;10.27;2.83;;;16.80;47.20;;;;;;5000999;28;20026;-69
2023/02/02 14:53:24;;;;;;;7.22;1.80;;;16.80;47.60;;;;;;5000946;28;20029;-69
2023/02/02 14:56:16;;;;;;;14.82;2.53;;;16.80;47.40;;;;;;5001016;28;20090;-69
2023/02/02 14:58:52;;;;;;;7.43;2.13;;;16.80;47.80;;;;;;4999097;28;20053;-69
2023/02/02 15:01:23;;;;;;;19.35;1.85;;;16.80;47.60;;;;;;5000950;28;20242;-68
2023/02/02 15:03:52;;;;;;;17.05;2.30;;;16.80;47.60;;;;;;5000630;28;20249;-69
2023/02/02 15:06:26;;;;;;;11.48;2.53;;;16.80;48.40;;;;;;5000753;28;20022;-69
2023/02/02 15:09:26;;;;;;;12.30;2.00;;;16.80;47.80;;;;;;5000751;28;20026;-69
2023/02/02 15:12:01;;;;;;;12.85;1.77;;;16.70;48.00;;;;;;5000703;28;20085;-69
2023/02/02 15:14:36;;;;;;;9.00;1.70;;;16.70;47.90;;;;;;5000640;28;20030;-69
2023/02/02 15:17:16;;;;;;;9.77;1.83;;;16.70;48.70;;;;;;5000749;28;20209;-68
2023/02/02 15:19:47;;;;;;;9.27;2.40;;;16.70;48.10;;;;;;5000672;28;20022;-69
2023/02/02 15:22:36;;;;;;;10.63;1.85;;;16.70;48.00;;;;;;5000627;28;20345;-69
2023/02/02 15:25:25;;;;;;;7.43;1.45;;;16.70;48.00;;;;;;5000633;28;20034;-70
2023/02/02 15:27:57;;;;;;;21.02;3.80;;;16.60;48.10;;;;;;4991594;28;20042;-68
2023/02/02 15:30:25;;;;;;;8.75;1.73;;;16.60;48.20;;;;;;5000749;28;20042;-68
2023/02/02 15:32:51;;;;;;;7.50;1.30;;;16.60;48.40;;;;;;5000606;28;20061;-69
2023/02/02 15:35:27;;;;;;;15.07;1.75;;;16.50;48.20;;;;;;5003319;28;20031;-69
2023/02/02 15:38:00;;;;;;;6.32;1.80;;;16.50;48.40;;;;;;5004308;28;20085;-68
2023/02/02 15:40:28;;;;;;;7.47;1.65;;;16.50;48.30;;;;;;5004099;28;20085;-69
2023/02/02 15:43:01;;;;;;;9.27;2.38;;;16.50;48.50;;;;;;5004010;28;20029;-69
2023/02/02 15:45:27;;;;;;;7.70;1.38;;;16.50;48.40;;;;;;5002700;28;20124;-69
2023/02/02 15:47:56;;;;;;;6.70;1.83;;;16.40;48.50;;;;;;5003863;28;20022;-69
2023/02/02 15:50:22;;;;;;;4.05;1.25;;;16.40;48.50;;;;;;5003851;28;20027;-69
2023/02/02 15:52:50;;;;;;;7.72;1.27;;;16.40;48.40;;;;;;5003658;28;20029;-69
2023/02/02 15:55:22;;;;;;;10.40;1.80;;;16.40;48.60;;;;;;5003707;28;20023;-69
2023/02/02 15:57:50;;;;;;;6.43;1.80;;;16.30;48.40;;;;;;5003575;28;20097;-68
2023/02/02 16:00:36;;;;;;;8.70;1.90;;;16.30;48.50;;;;;;5003589;28;20030;-69
2023/02/02 16:03:18;;;;;;;8.85;1.63;;;16.30;48.50;;;;;;5003440;28;20054;-69
2023/02/02 16:05:48;;;;;;;8.43;1.85;;;16.30;48.60;;;;;;5002233;28;20209;-69
2023/02/02 16:08:24;;;;;;;9.50;1.75;;;16.30;48.80;;;;;;5003483;28;20214;-69
2023/02/02 16:11:08;;;;;;;9.55;1.90;;;16.20;48.80;;;;;;5003398;28;20034;-68
2023/02/02 16:13:34;;;;;;;8.05;1.95;;;16.20;48.40;;;;;;5003276;28;20060;-69
2023/02/02 16:16:02;;;;;;;6.85;1.83;;;16.20;48.90;;;;;;5003224;28;20053;-68
2023/02/02 16:18:29;;;;;;;;;;;16.20;48.70;;;;;;5003655;28;20213;-69
2023/02/02 16:20:57;;;;;;;5.55;1.33;;;16.20;48.90;;;;;;5003288;28;19933;-69
2023/02/02 16:23:29;;;;;;;;;;;16.10;48.70;;;;;;5003641;28;20218;-68
2023/02/02 16:25:58;;;;;;;6.30;1.65;;;16.10;48.80;;;;;;5003179;28;19932;-68
2023/02/02 16:28:24;;;;;;;4.85;1.15;;;16.10;49.00;;;;;;5003104;28;20333;-69
2023/02/02 16:30:51;;;;;;;6.93;1.30;;;16.10;48.80;;;;;;5003043;28;20034;-69
2023/02/02 16:33:26;;;;;;;9.18;1.55;;;16.10;49.00;;;;;;5002898;28;20014;-68
2023/02/02 16:35:53;;;;;;;8.82;1.42;;;16.10;48.90;;;;;;5002987;28;20019;-68
2023/02/02 16:38:36;;;;;;;7.22;1.40;;;16.10;49.20;;;;;;5002895;28;20026;-69
2023/02/02 16:41:09;;;;;;;10.52;1.38;;;16.10;49.10;;;;;;5002884;28;20290;-68
2023/02/02 16:43:37;;;;;;;4.40;1.50;;;16.10;49.10;;;;;;5002787;28;20037;-69
2023/02/02 16:46:16;;;;;;;8.27;2.42;;;16.10;49.10;;;;;;5001154;28;20037;-69
2023/02/02 16:48:56;;;;;;;3.42;0.90;;;16.00;49.10;;;;;;5002741;28;20105;-69
2023/02/02 16:51:27;;;;;;;7.32;1.50;;;16.00;49.20;;;;;;5002687;28;20026;-69
2023/02/02 16:54:11;;;;;;;10.18;1.35;;;16.00;49.20;;;;;;5002421;28;20107;-69
2023/02/02 16:56:40;;;;;;;3.95;1.00;;;16.00;49.30;;;;;;5002605;28;20034;-69
2023/02/02 16:59:17;;;;;;;6.60;1.73;;;16.00;49.30;;;;;;5002506;28;20038;-69
2023/02/02 17:01:49;;;;;;;5.70;1.40;;;16.00;49.30;;;;;;5002562;28;20023;-68
2023/02/02 17:04:24;;;;;;;9.98;2.55;;;16.00;49.30;;;;;;5002274;28;20412;-69
2023/02/02 17:06:50;;;;;;;3.10;1.30;;;15.90;49.50;;;;;;5001062;28;20229;-68
2023/02/02 17:09:36;;;;;;;2.50;0.70;;;15.90;49.00;;;;;;5001011;28;20094;-69
2023/02/02 17:12:15;;;;;;;4.68;1.60;;;15.90;49.30;;;;;;5002257;28;20034;-68
2023/02/02 17:14:50;;;;;;;4.90;1.35;;;15.90;48.90;;;;;;5002223;28;20023;-68
2023/02/02 17:17:16;;;;;;;5.30;1.20;;;15.90;49.60;;;;;;5002143;28;20042;-70
2023/02/02 17:19:42;;;;;;;7.55;1.17;;;15.90;49.20;;;;;;5002184;28;20033;-69
2023/02/02 17:22:09;;;;;;;6.13;1.08;;;15.80;49.40;;;;;;5002132;28;20030;-68
2023/02/02 17:24:35;;;;;;;4.03;1.00;;;15.80;49.50;;;;;;5002250;28;20098;-69
2023/02/02 17:27:02;;;;;;;6.72;1.20;;;15.80;49.60;;;;;;5002206;28;20309;-69
2023/02/02 17:29:28;;;;;;;4.03;1.08;;;15.80;49.40;;;;;;5002024;28;20225;-69
2023/02/02 17:31:55;;;;;;;8.65;1.60;;;15.80;49.50;;;;;;5001850;28;20025;-69
2023/02/02 17:34:21;;;;;;;5.05;0.90;;;15.80;49.20;;;;;;5001975;28;20332;-69
2023/02/02 17:36:47;;;;;;;6.60;1.45;;;15.80;49.30;;;;;;5002044;28;20022;-68
2023/02/02 17:39:13;;;;;;;2.10;1.10;;;15.80;49.70;;;;;;5001927;28;20049;-68
2023/02/02 17:41:39;;;;;;;5.20;0.95;;;15.80;49.50;;;;;;5001776;28;20030;-69
2023/02/02 17:44:05;;;;;;;5.50;1.33;;;15.80;49.50;;;;;;5001694;28;20034;-69
2023/02/02 17:46:32;;;;;;;3.45;1.30;;;15.70;49.80;;;;;;5001696;28;20068;-69
2023/02/02 17:48:58;;;;;;;2.97;1.08;;;15.70;49.40;;;;;;5001675;28;20363;-69
2023/02/02 17:51:24;;;;;;;4.45;1.00;;;15.80;49.40;;;;;;5001615;28;20037;-69
2023/02/02 17:53:51;;;;;;;3.92;1.10;;;15.90;49.60;;;;;;5001409;28;20030;-68
2023/02/02 17:56:17;;;;;;;6.30;1.90;;;16.00;49.40;;;;;;5001519;28;20025;-70
2023/02/02 17:58:43;;;;;;;2.50;1.15;;;16.10;48.80;;;;;;5000703;28;20026;-69
2023/02/02 18:01:11;;;;;;;5.25;1.50;;;16.10;48.80;;;;;;5001388;28;20019;-69
2023/02/02 18:03:39;;;;;;;3.22;0.98;;;16.20;49.00;;;;;;5001284;28;20042;-69
2023/02/02 18:06:05;;;;;;;4.55;0.90;;;16.30;48.90;;;;;;5001581;28;20053;-68
2023/02/02 18:08:32;;;;;;;3.53;0.93;;;16.30;48.90;;;;;;5001459;28;20333;-69
2023/02/02 18:10:58;;;;;;;2.17;0.90;;;16.30;48.80;;;;;;5001362;28;20030;-69
2023/02/02 18:13:24;;;;;;;2.80;1.00;;;16.20;48.80;;;;;;5001212;28;20371;-69
2023/02/02 18:15:52;;;;;;;4.93;1.05;;;16.20;48.80;;;;;;5001490;28;20036;-69
2023/02/02 18:18:18;;;;;;;4.15;0.95;;;16.10;48.70;;;;;;4999878;28;20242;-69